Canal Winchester, Ohio
Current Conditions -  °F | °C
As of 2:55 PM on Thursday 30 Oct 2014 (Local Time) from KLCK Reporting Station
Overcast Overcast  
Wind Chill: 49°   Ceiling: 4000
Heat Index: 49°   Visibility: 10mi
Dew Point: 32°   Wind: 3mph
Humidity: 53%   Direction: 260°W
Pressure: 30.09"   Gusts: NA
Location:  39.85°N, 82.82°W
Report Text: KLCK 301855Z AUTO 26003KT 10SM OVC040 09/00 A3009 RMK AO2 T00930002
Loading
Personal Weather Stations






























Interactive Weather Map
Tropical Storm Tracking
New forecast layout! Learn more

10-Day Weather Forecast

Advertisements
Track Severe Weather on mobile